Time,TemperatureF,DewpointF,PressureIn,WindDirection,WindDirectionDegrees,WindSpeedMPH,WindSpeedGustMPH,Humidity,HourlyPrecipIn,Conditions,Clouds,dailyrainin,SoftwareType,DateUTC
2013-09-06 00:03:00,48.4,46.2,30.00,North,349,0.0,0.0,92,0.00,CLR,,0.00,WeatherDisplay:10.37,2013-09-06 08:03:00,
2013-09-06 00:08:00,48.3,45.8,30.00,North,349,0.0,0.0,91,0.00,CLR,,0.00,WeatherDisplay:10.37,2013-09-06 08:08:00,
2013-09-06 00:13:00,48.5,46.0,30.00,North,349,0.0,0.0,91,0.00,CLR,,0.00,WeatherDisplay:10.37,2013-09-06 08:13:00,
2013-09-06 00:18:00,48.6,46.1,30.00,North,349,0.0,0.0,91,0.00,CLR,,0.00,WeatherDisplay:10.37,2013-09-06 08:18:00,
2013-09-06 00:23:00,48.6,46.1,30.00,North,349,0.0,0.0,91,0.00,CLR,,0.00,WeatherDisplay:10.37,2013-09-06 08:23:00,
2013-09-06 00:28:00,48.5,46.0,29.99,North,349,0.0,0.0,91,0.00,CLR,,0.00,WeatherDisplay:10.37,2013-09-06 08:28:00,
2013-09-06 00:33:00,48.4,45.9,29.99,North,349,0.0,0.0,91,0.00,CLR,,0.00,WeatherDisplay:10.37,2013-09-06 08:33:00,
2013-09-06 00:38:00,48.3,45.8,29.99,North,349,0.0,0.0,91,0.00,CLR,,0.00,WeatherDisplay:10.37,2013-09-06 08:38:00,
2013-09-06 00:43:00,48.2,45.7,29.98,North,349,0.0,0.0,91,0.00,CLR,,0.00,WeatherDisplay:10.37,2013-09-06 08:43:00,
2013-09-06 00:48:00,48.1,45.6,29.99,North,349,0.0,0.0,91,0.00,CLR,,0.00,WeatherDisplay:10.37,2013-09-06 08:48:00,
2013-09-06 00:53:00,48.1,45.9,29.98,North,349,0.0,0.0,92,0.00,CLR,,0.00,WeatherDisplay:10.37,2013-09-06 08:53:00,
2013-09-06 00:58:00,48.0,45.8,29.98,North,349,0.0,0.0,92,0.00,CLR,,0.00,WeatherDisplay:10.37,2013-09-06 08:58:00,
2013-09-06 01:03:00,47.9,45.7,29.98,North,349,0.0,0.0,92,0.00,CLR,,0.00,WeatherDisplay:10.37,2013-09-06 09:03:00,
2013-09-06 01:08:00,47.9,45.7,29.98,North,349,0.0,0.0,92,0.00,CLR,,0.00,WeatherDisplay:10.37,2013-09-06 09:08:00,
2013-09-06 01:13:00,47.8,45.6,29.98,North,349,0.0,0.0,92,0.00,CLR,,0.00,WeatherDisplay:10.37,2013-09-06 09:13:00,
2013-09-06 01:18:00,47.8,45.6,29.98,North,349,0.0,0.0,92,0.00,CLR,,0.00,WeatherDisplay:10.37,2013-09-06 09:18:00,
2013-09-06 01:23:00,48.0,45.5,29.98,North,349,0.0,0.0,91,0.00,CLR,,0.00,WeatherDisplay:10.37,2013-09-06 09:23:00,
2013-09-06 01:28:00,48.1,45.6,29.97,North,349,0.0,0.0,91,0.00,CLR,,0.00,WeatherDisplay:10.37,2013-09-06 09:28:00,
2013-09-06 01:33:00,48.0,45.5,29.97,North,349,0.0,0.0,91,0.00,CLR,,0.00,WeatherDisplay:10.37,2013-09-06 09:33:00,
2013-09-06 01:38:00,47.9,45.4,29.97,North,349,0.0,0.0,91,0.00,CLR,,0.00,WeatherDisplay:10.37,2013-09-06 09:38:00,
2013-09-06 01:43:00,47.7,45.5,29.96,North,349,0.0,0.0,92,0.00,CLR,,0.00,WeatherDisplay:10.37,2013-09-06 09:43:00,
2013-09-06 01:48:00,47.5,45.3,29.96,North,349,0.0,0.0,92,0.00,CLR,,0.00,WeatherDisplay:10.37,2013-09-06 09:48:00,
2013-09-06 01:53:00,47.3,45.4,29.95,North,349,0.0,0.0,93,0.00,CLR,,0.00,WeatherDisplay:10.37,2013-09-06 09:53:00,
2013-09-06 01:58:00,47.3,45.1,29.95,North,349,0.0,0.0,92,0.00,CLR,,0.00,WeatherDisplay:10.37,2013-09-06 09:58:00,
2013-09-06 02:03:00,47.2,45.0,29.94,North,349,0.0,0.0,92,0.00,CLR,,0.00,WeatherDisplay:10.37,2013-09-06 10:03:00,
2013-09-06 02:08:00,47.2,45.0,29.94,North,349,0.0,0.0,92,0.00,CLR,,0.00,WeatherDisplay:10.37,2013-09-06 10:08:00,
2013-09-06 02:13:00,47.1,44.9,29.94,North,349,0.0,0.0,92,0.00,CLR,,0.00,WeatherDisplay:10.37,2013-09-06 10:13:00,
2013-09-06 02:18:00,46.8,44.9,29.93,North,349,0.0,0.0,93,0.00,CLR,,0.00,WeatherDisplay:10.37,2013-09-06 10:18:00,
2013-09-06 02:23:00,46.7,44.8,29.93,North,349,0.0,0.0,93,0.00,CLR,,0.00,WeatherDisplay:10.37,2013-09-06 10:23:00,
2013-09-06 02:28:00,46.7,44.8,29.93,North,349,0.0,0.0,93,0.00,CLR,,0.00,WeatherDisplay:10.37,2013-09-06 10:28:00,
2013-09-06 02:33:00,46.7,44.8,29.92,North,349,0.0,0.0,93,0.00,CLR,,0.00,WeatherDisplay:10.37,2013-09-06 10:33:00,
2013-09-06 02:38:00,46.7,44.8,29.92,North,349,0.0,0.0,93,0.00,CLR,,0.00,WeatherDisplay:10.37,2013-09-06 10:38:00,
2013-09-06 02:43:00,46.7,44.8,29.92,North,349,0.0,0.0,93,0.00,CLR,,0.00,WeatherDisplay:10.37,2013-09-06 10:43:00,
2013-09-06 02:48:00,46.7,44.8,29.91,North,349,0.0,0.0,93,0.00,CLR,,0.00,WeatherDisplay:10.37,2013-09-06 10:48:00,
2013-09-06 02:53:00,46.7,44.8,29.91,North,349,0.0,0.0,93,0.00,CLR,,0.00,WeatherDisplay:10.37,2013-09-06 10:53:00,
2013-09-06 02:58:00,46.8,44.9,29.91,North,349,0.0,0.0,93,0.00,CLR,,0.00,WeatherDisplay:10.37,2013-09-06 10:58:00,
2013-09-06 03:03:00,47.1,44.9,29.91,North,349,0.0,0.0,92,0.00,CLR,,0.00,WeatherDisplay:10.37,2013-09-06 11:03:00,
2013-09-06 03:08:00,47.4,44.9,29.90,North,349,0.0,0.0,91,0.00,CLR,,0.00,WeatherDisplay:10.37,2013-09-06 11:08:00,
2013-09-06 03:13:00,47.4,45.2,29.89,North,349,0.0,0.0,92,0.00,CLR,,0.00,WeatherDisplay:10.37,2013-09-06 11:13:00,
2013-09-06 03:18:00,47.4,44.9,29.89,North,349,0.0,0.0,91,0.00,CLR,,0.00,WeatherDisplay:10.37,2013-09-06 11:18:00,
2013-09-06 03:23:00,47.4,44.9,29.89,North,349,0.0,0.0,91,0.00,CLR,,0.00,WeatherDisplay:10.37,2013-09-06 11:23:00,
2013-09-06 03:28:00,47.2,44.7,29.89,North,349,0.0,0.0,91,0.00,CLR,,0.00,WeatherDisplay:10.37,2013-09-06 11:28:00,
2013-09-06 03:33:00,47.1,44.9,29.88,North,349,0.0,0.0,92,0.00,CLR,,0.00,WeatherDisplay:10.37,2013-09-06 11:33:00,
2013-09-06 03:38:00,46.9,44.7,29.88,North,349,0.0,0.0,92,0.00,CLR,,0.00,WeatherDisplay:10.37,2013-09-06 11:38:00,
2013-09-06 03:43:00,47.0,44.8,29.87,North,349,0.0,0.0,92,0.00,CLR,,0.00,WeatherDisplay:10.37,2013-09-06 11:43:00,
2013-09-06 03:48:00,47.2,44.7,29.87,North,349,0.0,0.0,91,0.00,CLR,,0.00,WeatherDisplay:10.37,2013-09-06 11:48:00,
2013-09-06 03:53:00,47.9,44.5,29.86,North,349,0.0,0.0,88,0.00,CLR,,0.00,WeatherDisplay:10.37,2013-09-06 11:53:00,
2013-09-06 03:58:00,48.8,44.5,29.86,North,349,0.0,0.0,85,0.00,CLR,,0.00,WeatherDisplay:10.37,2013-09-06 11:58:00,
2013-09-06 04:03:00,49.6,45.0,29.85,North,349,0.0,0.0,84,0.00,CLR,,0.00,WeatherDisplay:10.37,2013-09-06 12:03:00,
2013-09-06 04:08:00,50.1,45.1,29.85,North,349,0.0,0.0,83,0.00,CLR,,0.00,WeatherDisplay:10.37,2013-09-06 12:08:00,
2013-09-06 04:13:00,50.4,45.4,29.85,North,349,0.0,0.0,83,0.00,CLR,,0.00,WeatherDisplay:10.37,2013-09-06 12:13:00,
2013-09-06 04:18:00,50.4,45.1,29.84,North,349,0.0,0.0,82,0.00,CLR,,0.00,WeatherDisplay:10.37,2013-09-06 12:18:00,
2013-09-06 04:23:00,50.5,44.9,29.84,North,349,0.0,0.0,81,0.00,CLR,,0.00,WeatherDisplay:10.37,2013-09-06 12:23:00,
2013-09-06 04:28:00,50.8,44.9,29.83,North,349,0.0,0.0,80,0.00,CLR,,0.00,WeatherDisplay:10.37,2013-09-06 12:28:00,
2013-09-06 04:33:00,51.3,45.0,29.83,North,349,0.0,0.0,79,0.00,CLR,,0.00,WeatherDisplay:10.37,2013-09-06 12:33:00,
2013-09-06 04:38:00,51.9,45.6,29.82,North,349,0.0,0.0,79,0.00,CLR,,0.00,WeatherDisplay:10.37,2013-09-06 12:38:00,
2013-09-06 04:43:00,52.5,45.5,29.82,North,349,0.0,0.0,77,0.00,CLR,,0.00,WeatherDisplay:10.37,2013-09-06 12:43:00,
2013-09-06 04:48:00,52.7,45.3,29.82,North,349,0.0,0.0,76,0.00,CLR,,0.00,WeatherDisplay:10.37,2013-09-06 12:48:00,
2013-09-06 04:53:00,53.0,45.3,29.81,NNW,348,0.0,0.0,75,0.00,CLR,,0.00,WeatherDisplay:10.37,2013-09-06 12:53:00,
2013-09-06 04:58:00,53.2,45.5,29.81,North,349,0.0,0.0,75,0.00,CLR,,0.00,WeatherDisplay:10.37,2013-09-06 12:58:00,
2013-09-06 05:03:00,53.1,45.7,29.81,North,349,0.0,0.0,76,0.00,CLR,,0.00,WeatherDisplay:10.37,2013-09-06 13:03:00,
2013-09-06 05:08:00,53.2,45.5,29.80,NNW,348,0.0,0.0,75,0.00,CLR,,0.00,WeatherDisplay:10.37,2013-09-06 13:08:00,
2013-09-06 05:13:00,53.3,45.6,29.80,NNW,348,0.0,0.0,75,0.00,CLR,,0.00,WeatherDisplay:10.37,2013-09-06 13:13:00,
2013-09-06 05:18:00,53.3,45.6,29.80,North,349,0.0,0.0,75,0.00,CLR,,0.00,WeatherDisplay:10.37,2013-09-06 13:18:00,
2013-09-06 05:23:00,53.4,45.7,29.80,North,349,0.0,0.0,75,0.00,CLR,,0.00,WeatherDisplay:10.37,2013-09-06 13:23:00,
2013-09-06 05:28:00,53.7,46.0,29.80,NNW,348,0.0,0.0,75,0.00,CLR,,0.00,WeatherDisplay:10.37,2013-09-06 13:28:00,
2013-09-06 05:33:00,53.7,46.7,29.80,NNW,348,0.0,0.0,77,0.01,RA,,0.01,WeatherDisplay:10.37,2013-09-06 13:33:00,
2013-09-06 05:38:00,53.4,46.7,29.79,North,349,0.0,0.0,78,0.01,RA,,0.01,WeatherDisplay:10.37,2013-09-06 13:38:00,
2013-09-06 05:43:00,52.9,46.9,29.78,NNW,348,0.0,0.0,80,0.02,RA,,0.02,WeatherDisplay:10.37,2013-09-06 13:43:00,
2013-09-06 05:48:00,52.6,46.9,29.78,NNW,348,0.0,0.0,81,0.02,RA,,0.02,WeatherDisplay:10.37,2013-09-06 13:48:00,
2013-09-06 05:53:00,52.3,47.0,29.78,NNW,348,0.0,0.0,82,0.03,RA,,0.03,WeatherDisplay:10.37,2013-09-06 13:53:00,
2013-09-06 05:58:00,51.9,47.2,29.77,North,349,0.0,0.0,84,0.03,RA,,0.03,WeatherDisplay:10.37,2013-09-06 13:58:00,
2013-09-06 06:03:00,51.5,46.8,29.77,North,349,0.0,0.0,84,0.04,RA,,0.04,WeatherDisplay:10.37,2013-09-06 14:03:00,
2013-09-06 06:08:00,51.4,47.0,29.77,NNW,348,0.0,0.0,85,0.05,RA,,0.05,WeatherDisplay:10.37,2013-09-06 14:08:00,
2013-09-06 06:13:00,51.2,47.2,29.76,North,349,0.0,0.0,86,0.05,RA,,0.05,WeatherDisplay:10.37,2013-09-06 14:13:00,
2013-09-06 06:18:00,51.0,47.0,29.75,North,349,0.0,0.0,86,0.06,RA,,0.06,WeatherDisplay:10.37,2013-09-06 14:18:00,
2013-09-06 06:23:00,50.9,46.9,29.75,NNW,348,0.0,0.0,86,0.06,RA,,0.06,WeatherDisplay:10.37,2013-09-06 14:23:00,
2013-09-06 06:28:00,50.8,46.8,29.74,North,349,0.0,0.0,86,0.07,RA,,0.07,WeatherDisplay:10.37,2013-09-06 14:28:00,
2013-09-06 06:33:00,50.8,47.1,29.73,NNW,348,0.0,0.0,87,0.06,RA,,0.07,WeatherDisplay:10.37,2013-09-06 14:33:00,
2013-09-06 06:38:00,51.0,46.6,29.73,NNW,347,0.0,0.0,85,0.07,RA,,0.08,WeatherDisplay:10.37,2013-09-06 14:38:00,
2013-09-06 06:43:00,51.1,46.7,29.72,North,349,0.0,0.0,85,0.06,RA,,0.08,WeatherDisplay:10.37,2013-09-06 14:43:00,
2013-09-06 06:48:00,51.2,46.8,29.72,NNW,348,0.0,0.0,85,0.06,CLR,,0.08,WeatherDisplay:10.37,2013-09-06 14:48:00,
2013-09-06 06:53:00,51.1,46.7,29.71,NNW,348,0.0,0.0,85,0.06,RA,,0.09,WeatherDisplay:10.37,2013-09-06 14:53:00,
2013-09-06 06:58:00,51.1,46.7,29.70,NNW,348,0.0,0.0,85,0.06,RA,,0.09,WeatherDisplay:10.37,2013-09-06 14:58:00,
2013-09-06 07:03:00,51.0,46.6,29.70,NNW,348,0.0,0.0,85,0.06,RA,,0.10,WeatherDisplay:10.37,2013-09-06 15:03:00,
2013-09-06 07:08:00,51.0,46.6,29.69,NNW,345,1.1,0.0,85,0.05,RA,,0.10,WeatherDisplay:10.37,2013-09-06 15:08:00,
2013-09-06 07:13:00,51.0,46.6,29.69,NNW,346,0.0,0.0,85,0.05,CLR,,0.10,WeatherDisplay:10.37,2013-09-06 15:13:00,
2013-09-06 07:18:00,51.0,46.3,29.67,NNW,345,0.0,0.0,84,0.05,RA,,0.11,WeatherDisplay:10.37,2013-09-06 15:18:00,
2013-09-06 07:23:00,51.1,46.4,29.68,NNW,345,0.0,0.0,84,0.05,RA,,0.11,WeatherDisplay:10.37,2013-09-06 15:23:00,
2013-09-06 07:28:00,51.0,46.6,29.67,NNW,346,0.0,0.0,85,0.05,RA,,0.12,WeatherDisplay:10.37,2013-09-06 15:28:00,
2013-09-06 07:33:00,51.0,46.3,29.67,NNW,345,0.0,0.0,84,0.05,RA,,0.12,WeatherDisplay:10.37,2013-09-06 15:33:00,
2013-09-06 07:38:00,51.0,46.3,29.66,NNW,345,0.0,0.0,84,0.05,RA,,0.13,WeatherDisplay:10.37,2013-09-06 15:38:00,
2013-09-06 07:43:00,51.2,46.5,29.66,NNW,345,0.0,0.0,84,0.05,RA,,0.13,WeatherDisplay:10.37,2013-09-06 15:43:00,
2013-09-06 07:48:00,51.1,46.4,29.65,NNW,345,0.0,0.0,84,0.05,,,0.13,WeatherDisplay:10.37,2013-09-06 15:48:00,
2013-09-06 07:53:00,50.9,46.6,29.65,NNW,346,0.0,0.0,85,0.05,RA,,0.14,WeatherDisplay:10.37,2013-09-06 15:53:00,
2013-09-06 07:58:00,50.8,46.5,29.64,NNW,345,0.0,0.0,85,0.05,RA,,0.14,WeatherDisplay:10.37,2013-09-06 15:58:00,
2013-09-06 08:03:00,50.7,46.4,29.63,NNW,347,0.0,0.0,85,0.05,RA,,0.15,WeatherDisplay:10.37,2013-09-06 16:03:00,
2013-09-06 08:08:00,50.7,46.4,29.63,NNW,347,0.0,0.0,85,0.05,RA,,0.15,WeatherDisplay:10.37,2013-09-06 16:08:00,
2013-09-06 08:13:00,50.6,46.6,29.63,NNW,347,0.0,0.0,86,0.06,RA,,0.16,WeatherDisplay:10.37,2013-09-06 16:13:00,
2013-09-06 08:18:00,50.7,46.4,29.63,NNW,346,0.0,0.0,85,0.05,RA,,0.16,WeatherDisplay:10.37,2013-09-06 16:18:00,
2013-09-06 08:23:00,50.5,46.5,29.62,NNW,347,0.0,0.0,86,0.06,RA,,0.17,WeatherDisplay:10.37,2013-09-06 16:23:00,
2013-09-06 08:28:00,50.5,46.5,29.62,NNW,347,0.0,0.0,86,0.06,RA,,0.18,WeatherDisplay:10.37,2013-09-06 16:28:00,
2013-09-06 08:33:00,50.3,46.6,29.61,NNW,347,0.0,0.0,87,0.06,RA,,0.18,WeatherDisplay:10.37,2013-09-06 16:33:00,
2013-09-06 08:38:00,50.2,46.5,29.61,NNW,346,0.0,0.0,87,0.07,RA,,0.20,WeatherDisplay:10.37,2013-09-06 16:38:00,
2013-09-06 08:43:00,50.3,46.6,29.60,NNW,346,0.0,0.0,87,0.07,RA,,0.20,WeatherDisplay:10.37,2013-09-06 16:43:00,
2013-09-06 08:48:00,50.4,46.7,29.59,NNW,347,0.0,0.0,87,0.07,,,0.20,WeatherDisplay:10.37,2013-09-06 16:48:00,
2013-09-06 08:53:00,50.5,46.2,29.59,NNW,345,0.0,0.0,85,0.07,RA,,0.21,WeatherDisplay:10.37,2013-09-06 16:53:00,
2013-09-06 08:58:00,50.7,46.4,29.58,NNW,347,0.0,0.0,85,0.07,RA,,0.21,WeatherDisplay:10.37,2013-09-06 16:58:00,
2013-09-06 09:03:00,50.8,46.5,29.58,NNW,347,0.0,0.0,85,0.07,RA,,0.22,WeatherDisplay:10.37,2013-09-06 17:03:00,
2013-09-06 09:08:00,50.9,46.6,29.58,NNW,347,0.0,0.0,85,0.07,RA,,0.22,WeatherDisplay:10.37,2013-09-06 17:08:00,
2013-09-06 09:13:00,51.0,46.6,29.57,NNW,347,0.0,0.0,85,0.06,,,0.22,WeatherDisplay:10.37,2013-09-06 17:13:00,
2013-09-06 09:18:00,51.0,47.0,29.57,NNW,347,0.0,0.0,86,0.07,RA,,0.23,WeatherDisplay:10.37,2013-09-06 17:18:00,
2013-09-06 09:23:00,51.0,47.0,29.58,NNW,347,0.0,0.0,86,0.06,RA,,0.23,WeatherDisplay:10.37,2013-09-06 17:23:00,
2013-09-06 09:28:00,51.0,46.6,29.57,NNW,347,0.0,0.0,85,0.05,,,0.23,WeatherDisplay:10.37,2013-09-06 17:28:00,
2013-09-06 09:33:00,51.2,46.8,29.57,NNW,347,0.0,0.0,85,0.06,RA,,0.24,WeatherDisplay:10.37,2013-09-06 17:33:00,
2013-09-06 09:38:00,51.0,47.3,29.56,NNW,347,0.0,0.0,87,0.04,RA,,0.24,WeatherDisplay:10.37,2013-09-06 17:38:00,
2013-09-06 09:43:00,51.2,47.5,29.56,NNW,347,0.0,0.0,87,0.05,RA,,0.25,WeatherDisplay:10.37,2013-09-06 17:43:00,
2013-09-06 09:48:00,51.2,47.5,29.56,NNW,347,0.0,0.0,87,0.06,RA,,0.26,WeatherDisplay:10.37,2013-09-06 17:48:00,
2013-09-06 09:53:00,51.2,47.5,29.55,NNW,347,0.0,0.0,87,0.06,RA,,0.27,WeatherDisplay:10.37,2013-09-06 17:53:00,
2013-09-06 09:58:00,51.1,47.7,29.55,NNW,347,0.0,0.0,88,0.07,RA,,0.28,WeatherDisplay:10.37,2013-09-06 17:58:00,
2013-09-06 10:03:00,51.2,47.5,29.55,NNW,347,0.0,0.0,87,0.07,RA,,0.29,WeatherDisplay:10.37,2013-09-06 18:03:00,
2013-09-06 10:08:00,51.3,47.9,29.54,NNW,347,0.0,0.0,88,0.08,RA,,0.30,WeatherDisplay:10.37,2013-09-06 18:08:00,
2013-09-06 10:13:00,51.4,48.0,29.54,NNW,347,0.0,0.0,88,0.09,RA,,0.31,WeatherDisplay:10.37,2013-09-06 18:13:00,
2013-09-06 10:18:00,51.2,48.1,29.54,NNW,347,0.0,0.0,89,0.09,RA,,0.32,WeatherDisplay:10.37,2013-09-06 18:18:00,
2013-09-06 10:23:00,50.8,47.7,29.53,NNW,347,0.0,0.0,89,0.11,RA,,0.34,WeatherDisplay:10.37,2013-09-06 18:23:00,
2013-09-06 10:28:00,50.5,47.7,29.53,NNW,347,0.0,0.0,90,0.13,RA,,0.36,WeatherDisplay:10.37,2013-09-06 18:28:00,
2013-09-06 10:33:00,50.4,47.9,29.53,NNW,347,0.0,0.0,91,0.13,RA,,0.37,WeatherDisplay:10.37,2013-09-06 18:33:00,
2013-09-06 10:38:00,50.6,47.8,29.53,NNW,347,0.0,0.0,90,0.15,RA,,0.39,WeatherDisplay:10.37,2013-09-06 18:38:00,
2013-09-06 10:43:00,50.8,48.0,29.53,NNW,347,0.0,0.0,90,0.16,RA,,0.41,WeatherDisplay:10.37,2013-09-06 18:43:00,
2013-09-06 10:48:00,50.5,48.0,29.52,NNW,347,0.0,0.0,91,0.17,RA,,0.43,WeatherDisplay:10.37,2013-09-06 18:48:00,
2013-09-06 10:53:00,50.3,48.1,29.52,NNW,347,0.0,0.0,92,0.18,RA,,0.45,WeatherDisplay:10.37,2013-09-06 18:53:00,
2013-09-06 10:58:00,50.1,47.9,29.52,NNW,347,0.0,0.0,92,0.18,RA,,0.47,WeatherDisplay:10.37,2013-09-06 18:58:00,
2013-09-06 11:03:00,50.0,47.8,29.52,NNW,347,0.0,0.0,92,0.19,RA,,0.48,WeatherDisplay:10.37,2013-09-06 19:03:00,
2013-09-06 11:08:00,50.0,48.1,29.52,NNW,347,0.0,0.0,93,0.20,RA,,0.50,WeatherDisplay:10.37,2013-09-06 19:08:00,
2013-09-06 11:13:00,50.1,48.2,29.52,NNW,347,0.0,0.0,93,0.21,RA,,0.52,WeatherDisplay:10.37,2013-09-06 19:13:00,
2013-09-06 11:18:00,50.1,47.9,29.52,NNW,347,0.0,0.0,92,0.22,RA,,0.54,WeatherDisplay:10.37,2013-09-06 19:18:00,
2013-09-06 11:23:00,50.2,48.3,29.51,NNW,347,0.0,0.0,93,0.21,RA,,0.55,WeatherDisplay:10.37,2013-09-06 19:23:00,
2013-09-06 11:28:00,50.4,48.5,29.52,NNW,347,0.0,0.0,93,0.21,RA,,0.57,WeatherDisplay:10.37,2013-09-06 19:28:00,
2013-09-06 11:33:00,50.6,48.7,29.51,NNW,347,0.0,0.0,93,0.21,RA,,0.58,WeatherDisplay:10.37,2013-09-06 19:33:00,
2013-09-06 11:38:00,50.8,48.8,29.51,NNW,347,0.0,0.0,93,0.21,RA,,0.60,WeatherDisplay:10.37,2013-09-06 19:38:00,
2013-09-06 11:43:00,50.8,48.8,29.51,NNW,347,0.0,0.0,93,0.20,RA,,0.61,WeatherDisplay:10.37,2013-09-06 19:43:00,
2013-09-06 11:48:00,50.8,48.8,29.51,NNW,347,0.0,0.0,93,0.19,RA,,0.62,WeatherDisplay:10.37,2013-09-06 19:48:00,
2013-09-06 11:53:00,50.5,48.6,29.51,NNW,347,0.0,0.0,93,0.18,RA,,0.63,WeatherDisplay:10.37,2013-09-06 19:53:00,
2013-09-06 11:58:00,50.5,48.6,29.51,NNW,347,0.0,0.0,93,0.18,RA,,0.64,WeatherDisplay:10.37,2013-09-06 19:58:00,
2013-09-06 12:03:00,50.7,48.7,29.51,NNW,347,0.0,0.0,93,0.17,RA,,0.65,WeatherDisplay:10.37,2013-09-06 20:03:00,
2013-09-06 12:08:00,51.2,49.2,29.50,NNW,347,0.0,0.0,93,0.16,RA,,0.66,WeatherDisplay:10.37,2013-09-06 20:08:00,
2013-09-06 12:13:00,51.2,49.2,29.50,NNW,347,0.0,0.0,93,0.14,RA,,0.66,WeatherDisplay:10.37,2013-09-06 20:13:00,
2013-09-06 12:18:00,51.2,49.2,29.50,NNW,347,0.0,0.0,93,0.14,RA,,0.68,WeatherDisplay:10.37,2013-09-06 20:18:00,
2013-09-06 12:23:00,51.2,49.5,29.50,NNW,347,0.0,0.0,94,0.14,RA,,0.69,WeatherDisplay:10.37,2013-09-06 20:23:00,
2013-09-06 12:28:00,51.1,49.4,29.50,NNW,347,0.0,0.0,94,0.13,RA,,0.70,WeatherDisplay:10.37,2013-09-06 20:28:00,
2013-09-06 12:33:00,50.9,49.2,29.50,NNW,347,0.0,0.0,94,0.13,RA,,0.71,WeatherDisplay:10.37,2013-09-06 20:33:00,
2013-09-06 12:38:00,50.8,49.1,29.50,NNW,347,0.0,0.0,94,0.11,RA,,0.71,WeatherDisplay:10.37,2013-09-06 20:38:00,
2013-09-06 12:43:00,50.9,49.2,29.50,NNW,347,0.0,0.0,94,0.10,CLR,,0.71,WeatherDisplay:10.37,2013-09-06 20:43:00,
2013-09-06 12:48:00,51.0,49.6,29.50,NNW,347,0.0,0.0,95,0.11,RA,,0.73,WeatherDisplay:10.37,2013-09-06 20:48:00,
2013-09-06 12:53:00,51.0,49.6,29.50,NNW,347,0.0,0.0,95,0.10,RA,,0.73,WeatherDisplay:10.37,2013-09-06 20:53:00,
2013-09-06 12:58:00,51.0,49.6,29.49,NNW,347,0.0,0.0,95,0.10,RA,,0.74,WeatherDisplay:10.37,2013-09-06 20:58:00,
2013-09-06 13:03:00,51.0,49.6,29.49,NNW,347,0.0,0.0,95,0.10,RA,,0.75,WeatherDisplay:10.37,2013-09-06 21:03:00,
2013-09-06 13:08:00,51.1,49.7,29.49,NNW,347,0.0,0.0,95,0.09,RA,,0.75,WeatherDisplay:10.37,2013-09-06 21:08:00,
2013-09-06 13:13:00,51.0,49.6,29.49,NNW,347,0.0,0.0,95,0.09,CLR,,0.75,WeatherDisplay:10.37,2013-09-06 21:13:00,
2013-09-06 13:18:00,51.0,49.6,29.49,NNW,347,0.0,0.0,95,0.08,RA,,0.76,WeatherDisplay:10.37,2013-09-06 21:18:00,
2013-09-06 13:23:00,51.0,49.6,29.48,NNW,347,0.0,0.0,95,0.07,RA,,0.76,WeatherDisplay:10.37,2013-09-06 21:23:00,
2013-09-06 13:28:00,51.1,49.7,29.47,NNW,347,0.0,0.0,95,0.06,CLR,,0.76,WeatherDisplay:10.37,2013-09-06 21:28:00,
2013-09-06 13:33:00,51.2,49.8,29.47,NNW,347,0.0,0.0,95,0.05,CLR,,0.76,WeatherDisplay:10.37,2013-09-06 21:33:00,
2013-09-06 13:38:00,51.3,49.9,29.47,NNW,347,0.0,0.0,95,0.06,RA,,0.77,WeatherDisplay:10.37,2013-09-06 21:38:00,
2013-09-06 13:43:00,51.4,50.0,29.47,NNW,347,0.0,0.0,95,0.07,RA,,0.78,WeatherDisplay:10.37,2013-09-06 21:43:00,
2013-09-06 13:48:00,51.5,50.4,29.47,NNW,347,0.0,0.0,96,0.06,RA,,0.79,WeatherDisplay:10.37,2013-09-06 21:48:00,
2013-09-06 13:53:00,51.5,50.4,29.47,NNW,347,0.0,0.0,96,0.06,RA,,0.79,WeatherDisplay:10.37,2013-09-06 21:53:00,
2013-09-06 13:58:00,51.4,50.0,29.47,NNW,347,0.0,0.0,95,0.05,,,0.79,WeatherDisplay:10.37,2013-09-06 21:58:00,
2013-09-06 14:03:00,51.4,50.0,29.46,NNW,347,0.0,0.0,95,0.04,CLR,,0.79,WeatherDisplay:10.37,2013-09-06 22:03:00,
2013-09-06 14:08:00,51.3,49.9,29.46,NNW,347,0.0,0.0,95,0.04,CLR,,0.79,WeatherDisplay:10.37,2013-09-06 22:08:00,
2013-09-06 14:13:00,51.3,49.9,29.46,NNW,347,0.0,0.0,95,0.05,RA,,0.80,WeatherDisplay:10.37,2013-09-06 22:13:00,
2013-09-06 14:18:00,51.3,49.9,29.46,NNW,347,0.0,0.0,95,0.06,RA,,0.82,WeatherDisplay:10.37,2013-09-06 22:18:00,
2013-09-06 14:23:00,51.5,50.1,29.45,NNW,347,0.0,0.0,95,0.06,RA,,0.82,WeatherDisplay:10.37,2013-09-06 22:23:00,
2013-09-06 14:28:00,51.7,50.6,29.45,NNW,347,0.0,0.0,96,0.07,RA,,0.83,WeatherDisplay:10.37,2013-09-06 22:28:00,
2013-09-06 14:33:00,51.9,50.5,29.45,NNW,347,0.0,0.0,95,0.07,RA,,0.83,WeatherDisplay:10.37,2013-09-06 22:33:00,
2013-09-06 14:38:00,52.1,51.0,29.45,NNW,347,0.0,0.0,96,0.06,CLR,,0.83,WeatherDisplay:10.37,2013-09-06 22:38:00,
2013-09-06 14:43:00,52.3,51.2,29.45,NNW,347,0.0,0.0,96,0.05,CLR,,0.83,WeatherDisplay:10.37,2013-09-06 22:43:00,
2013-09-06 14:48:00,52.4,51.3,29.45,NNW,347,0.0,0.0,96,0.04,CLR,,0.83,WeatherDisplay:10.37,2013-09-06 22:48:00,
2013-09-06 14:53:00,52.3,51.2,29.45,NNW,347,0.0,0.0,96,0.04,CLR,,0.83,WeatherDisplay:10.37,2013-09-06 22:53:00,
2013-09-06 14:58:00,52.3,51.2,29.45,NNW,347,0.0,0.0,96,0.05,RA,,0.84,WeatherDisplay:10.37,2013-09-06 22:58:00,
2013-09-06 15:03:00,52.3,51.2,29.45,NNW,347,0.0,0.0,96,0.06,RA,,0.85,WeatherDisplay:10.37,2013-09-06 23:03:00,
2013-09-06 15:08:00,52.4,51.3,29.45,NNW,347,0.0,0.0,96,0.06,RA,,0.85,WeatherDisplay:10.37,2013-09-06 23:08:00,
2013-09-06 15:13:00,52.3,51.2,29.45,NNW,347,0.0,0.0,96,0.05,CLR,,0.85,WeatherDisplay:10.37,2013-09-06 23:13:00,
2013-09-06 15:18:00,52.2,51.1,29.45,NNW,347,0.0,0.0,96,0.04,RA,,0.86,WeatherDisplay:10.37,2013-09-06 23:18:00,
2013-09-06 15:23:00,52.1,50.7,29.45,NNW,347,0.0,0.0,95,0.04,RA,,0.86,WeatherDisplay:10.37,2013-09-06 23:23:00,
2013-09-06 15:28:00,52.0,50.6,29.45,NNW,347,0.0,0.0,95,0.03,CLR,,0.86,WeatherDisplay:10.37,2013-09-06 23:28:00,
2013-09-06 15:33:00,51.9,50.5,29.45,NNW,347,0.0,0.0,95,0.03,CLR,,0.86,WeatherDisplay:10.37,2013-09-06 23:33:00,
2013-09-06 15:38:00,51.8,50.7,29.45,NNW,347,0.0,0.0,96,0.03,CLR,,0.86,WeatherDisplay:10.37,2013-09-06 23:38:00,
2013-09-06 15:43:00,51.7,50.6,29.44,NNW,347,0.0,0.0,96,0.03,CLR,,0.86,WeatherDisplay:10.37,2013-09-06 23:43:00,
2013-09-06 15:48:00,51.6,50.5,29.44,NNW,347,0.0,0.0,96,0.03,CLR,,0.86,WeatherDisplay:10.37,2013-09-06 23:48:00,
2013-09-06 15:53:00,51.9,50.8,29.44,NNW,347,0.0,0.0,96,0.03,CLR,,0.86,WeatherDisplay:10.37,2013-09-06 23:53:00,
2013-09-06 15:58:00,53.4,52.3,29.43,NNW,347,0.0,0.0,96,0.02,CLR,,0.86,WeatherDisplay:10.37,2013-09-06 23:58:00,
2013-09-06 16:03:00,54.2,53.1,29.43,NNW,347,0.0,0.0,96,0.01,CLR,,0.86,WeatherDisplay:10.37,2013-09-07 00:03:00,
2013-09-06 16:08:00,54.4,53.3,29.44,NNW,347,0.0,0.0,96,0.01,CLR,,0.86,WeatherDisplay:10.37,2013-09-07 00:08:00,
2013-09-06 16:13:00,54.5,53.4,29.44,North,349,0.0,0.0,96,0.01,CLR,,0.86,WeatherDisplay:10.37,2013-09-07 00:13:00,
2013-09-06 16:18:00,54.5,53.1,29.44,NNW,348,0.0,0.0,95,0.00,CLR,,0.86,WeatherDisplay:10.37,2013-09-07 00:18:00,
2013-09-06 16:23:00,54.4,53.0,29.44,NNW,348,0.0,0.0,95,0.00,CLR,,0.86,WeatherDisplay:10.37,2013-09-07 00:23:00,
2013-09-06 16:28:00,54.3,52.9,29.44,NNW,348,0.0,0.0,95,0.00,CLR,,0.86,WeatherDisplay:10.37,2013-09-07 00:28:00,
2013-09-06 16:33:00,54.3,52.6,29.44,NNW,348,0.0,0.0,94,0.00,CLR,,0.86,WeatherDisplay:10.37,2013-09-07 00:33:00,
2013-09-06 16:38:00,54.3,52.6,29.44,NNW,347,0.0,0.0,94,0.00,CLR,,0.86,WeatherDisplay:10.37,2013-09-07 00:38:00,
2013-09-06 16:43:00,54.4,52.7,29.44,NNW,347,0.0,0.0,94,0.00,CLR,,0.86,WeatherDisplay:10.37,2013-09-07 00:43:00,
2013-09-06 16:48:00,54.4,52.4,29.45,NNW,348,0.0,0.0,93,0.00,CLR,,0.86,WeatherDisplay:10.37,2013-09-07 00:48:00,
2013-09-06 16:53:00,54.1,52.1,29.44,NNW,347,0.0,0.0,93,0.01,RA,,0.87,WeatherDisplay:10.37,2013-09-07 00:53:00,
2013-09-06 16:58:00,53.9,51.9,29.44,NNW,347,0.0,0.0,93,0.01,RA,,0.87,WeatherDisplay:10.37,2013-09-07 00:58:00,
2013-09-06 17:03:00,53.9,51.9,29.44,NNW,347,0.0,0.0,93,0.01,,,0.87,WeatherDisplay:10.37,2013-09-07 01:03:00,
2013-09-06 17:08:00,53.9,51.9,29.44,NNW,347,0.0,0.0,93,0.01,CLR,,0.87,WeatherDisplay:10.37,2013-09-07 01:08:00,
2013-09-06 17:13:00,54.0,51.4,29.44,NNW,347,0.0,0.0,91,0.01,CLR,,0.87,WeatherDisplay:10.37,2013-09-07 01:13:00,
2013-09-06 17:18:00,54.1,51.2,29.44,NNW,348,0.0,0.0,90,0.01,CLR,,0.87,WeatherDisplay:10.37,2013-09-07 01:18:00,
2013-09-06 17:23:00,54.0,51.4,29.44,NNW,348,0.0,0.0,91,0.01,CLR,,0.87,WeatherDisplay:10.37,2013-09-07 01:23:00,
2013-09-06 17:28:00,53.7,51.1,29.44,NNW,348,0.0,0.0,91,0.01,CLR,,0.87,WeatherDisplay:10.37,2013-09-07 01:28:00,
2013-09-06 17:33:00,53.4,51.1,29.44,NNW,347,0.0,0.0,92,0.01,CLR,,0.87,WeatherDisplay:10.37,2013-09-07 01:33:00,
2013-09-06 17:38:00,53.3,51.3,29.44,NNW,347,0.0,0.0,93,0.01,CLR,,0.87,WeatherDisplay:10.37,2013-09-07 01:38:00,
2013-09-06 17:43:00,53.3,51.0,29.44,NNW,348,0.0,0.0,92,0.01,CLR,,0.87,WeatherDisplay:10.37,2013-09-07 01:43:00,
2013-09-06 17:48:00,53.3,50.7,29.44,NNW,347,0.0,0.0,91,0.01,CLR,,0.87,WeatherDisplay:10.37,2013-09-07 01:48:00,
2013-09-06 17:53:00,53.2,50.6,29.44,NNW,348,0.0,0.0,91,0.00,CLR,,0.87,WeatherDisplay:10.37,2013-09-07 01:53:00,
2013-09-06 17:58:00,53.2,50.9,29.44,NNW,348,0.0,0.0,92,0.00,CLR,,0.87,WeatherDisplay:10.37,2013-09-07 01:58:00,
2013-09-06 18:03:00,53.2,50.9,29.43,NNW,348,0.0,0.0,92,0.00,CLR,,0.87,WeatherDisplay:10.37,2013-09-07 02:03:00,
2013-09-06 18:08:00,53.3,50.7,29.43,NNW,348,0.0,0.0,91,0.00,CLR,,0.87,WeatherDisplay:10.37,2013-09-07 02:08:00,
2013-09-06 18:13:00,53.4,50.5,29.44,NNW,348,0.0,0.0,90,0.00,CLR,,0.87,WeatherDisplay:10.37,2013-09-07 02:13:00,
2013-09-06 18:18:00,53.5,50.6,29.43,NNW,348,0.0,0.0,90,0.00,CLR,,0.87,WeatherDisplay:10.37,2013-09-07 02:18:00,
2013-09-06 18:23:00,53.5,50.6,29.43,NNW,348,0.0,0.0,90,0.00,CLR,,0.87,WeatherDisplay:10.37,2013-09-07 02:23:00,
2013-09-06 18:28:00,53.5,50.6,29.43,NNW,348,0.0,0.0,90,0.00,CLR,,0.87,WeatherDisplay:10.37,2013-09-07 02:28:00,
2013-09-06 18:33:00,53.5,50.6,29.43,NNW,348,0.0,0.0,90,0.00,CLR,,0.87,WeatherDisplay:10.37,2013-09-07 02:33:00,
2013-09-06 18:38:00,53.5,50.6,29.43,NNW,347,0.0,0.0,90,0.00,CLR,,0.87,WeatherDisplay:10.37,2013-09-07 02:38:00,
2013-09-06 18:43:00,53.4,50.5,29.43,NNW,347,0.0,0.0,90,0.00,CLR,,0.87,WeatherDisplay:10.37,2013-09-07 02:43:00,
2013-09-06 18:48:00,53.3,50.4,29.43,NNW,348,0.0,0.0,90,0.00,CLR,,0.87,WeatherDisplay:10.37,2013-09-07 02:48:00,
2013-09-06 18:53:00,53.3,50.4,29.43,NNW,348,0.0,0.0,90,0.00,CLR,,0.87,WeatherDisplay:10.37,2013-09-07 02:53:00,
2013-09-06 18:58:00,53.2,50.3,29.43,NNW,348,0.0,0.0,90,0.00,CLR,,0.87,WeatherDisplay:10.37,2013-09-07 02:58:00,
2013-09-06 19:03:00,53.1,50.2,29.43,NNW,348,0.0,0.0,90,0.01,RA,,0.88,WeatherDisplay:10.37,2013-09-07 03:03:00,
2013-09-06 19:08:00,53.0,50.4,29.43,NNW,348,0.0,0.0,91,0.01,RA,,0.88,WeatherDisplay:10.37,2013-09-07 03:08:00,
2013-09-06 19:13:00,52.7,49.8,29.42,NNW,348,0.0,0.0,90,0.01,,,0.88,WeatherDisplay:10.37,2013-09-07 03:13:00,
2013-09-06 19:18:00,52.6,49.4,29.43,NNW,348,0.0,0.0,89,0.01,CLR,,0.88,WeatherDisplay:10.37,2013-09-07 03:18:00,
2013-09-06 19:23:00,52.5,49.4,29.43,NNW,348,0.0,0.0,89,0.01,CLR,,0.88,WeatherDisplay:10.37,2013-09-07 03:23:00,
2013-09-06 19:28:00,52.5,49.4,29.42,NNW,348,0.0,0.0,89,0.01,CLR,,0.88,WeatherDisplay:10.37,2013-09-07 03:28:00,
2013-09-06 19:33:00,52.4,49.6,29.43,NNW,348,0.0,0.0,90,0.01,CLR,,0.88,WeatherDisplay:10.37,2013-09-07 03:33:00,
2013-09-06 19:38:00,52.4,49.6,29.42,North,349,0.0,0.0,90,0.01,CLR,,0.88,WeatherDisplay:10.37,2013-09-07 03:38:00,
2013-09-06 19:43:00,52.6,49.4,29.42,North,349,0.0,0.0,89,0.02,RA,,0.89,WeatherDisplay:10.37,2013-09-07 03:43:00,
2013-09-06 19:48:00,52.6,49.4,29.42,NNW,348,0.0,0.0,89,0.02,RA,,0.89,WeatherDisplay:10.37,2013-09-07 03:48:00,
2013-09-06 19:53:00,52.7,49.2,29.41,North,349,0.0,0.0,88,0.02,CLR,,0.89,WeatherDisplay:10.37,2013-09-07 03:53:00,
2013-09-06 19:58:00,52.6,49.4,29.41,NNW,348,0.0,0.0,89,0.02,CLR,,0.89,WeatherDisplay:10.37,2013-09-07 03:58:00,
2013-09-06 20:01:00,52.6,49.4,29.41,North,349,0.0,0.0,89,0.02,CLR,,0.89,WeatherDisplay:10.37,2013-09-07 04:01:00,
2013-09-06 20:02:00,52.5,49.4,29.41,North,349,0.0,0.0,89,0.01,CLR,,0.89,WeatherDisplay:10.37,2013-09-07 04:02:00,
2013-09-06 20:07:00,52.4,49.3,29.41,North,349,0.0,0.0,89,0.01,CLR,,0.89,WeatherDisplay:10.37,2013-09-07 04:07:00,
2013-09-06 20:12:00,52.3,49.5,29.41,NNW,348,0.0,0.0,90,0.01,CLR,,0.89,WeatherDisplay:10.37,2013-09-07 04:12:00,
2013-09-06 20:17:00,52.3,49.5,29.41,North,349,0.0,0.0,90,0.02,RA,,0.90,WeatherDisplay:10.37,2013-09-07 04:17:00,
2013-09-06 20:22:00,52.1,49.6,29.41,North,349,0.0,0.0,91,0.02,RA,,0.90,WeatherDisplay:10.37,2013-09-07 04:22:00,
2013-09-06 20:27:00,52.0,49.2,29.41,NNW,348,0.0,0.0,90,0.02,,,0.90,WeatherDisplay:10.37,2013-09-07 04:27:00,
2013-09-06 20:32:00,52.2,49.4,29.41,NNW,348,0.0,0.0,90,0.02,CLR,,0.90,WeatherDisplay:10.37,2013-09-07 04:32:00,
2013-09-06 20:37:00,52.2,49.4,29.41,North,349,0.0,0.0,90,0.02,CLR,,0.90,WeatherDisplay:10.37,2013-09-07 04:37:00,
2013-09-06 20:42:00,52.2,49.4,29.41,North,349,0.0,0.0,90,0.01,CLR,,0.90,WeatherDisplay:10.37,2013-09-07 04:42:00,
2013-09-06 20:47:00,52.2,49.4,29.41,NNW,348,0.0,0.0,90,0.01,CLR,,0.90,WeatherDisplay:10.37,2013-09-07 04:47:00,
2013-09-06 20:52:00,52.3,49.5,29.41,North,349,0.0,0.0,90,0.01,CLR,,0.90,WeatherDisplay:10.37,2013-09-07 04:52:00,
2013-09-06 20:57:00,52.2,49.4,29.41,North,349,0.0,0.0,90,0.01,CLR,,0.90,WeatherDisplay:10.37,2013-09-07 04:57:00,
2013-09-06 21:02:00,52.0,49.5,29.42,NNW,348,0.0,0.0,91,0.02,RA,,0.91,WeatherDisplay:10.37,2013-09-07 05:02:00,
2013-09-06 21:07:00,51.9,49.4,29.42,NNW,348,0.0,0.0,91,0.03,RA,,0.92,WeatherDisplay:10.37,2013-09-07 05:07:00,
2013-09-06 21:12:00,51.8,49.5,29.42,North,349,0.0,0.0,92,0.05,RA,,0.95,WeatherDisplay:10.37,2013-09-07 05:12:00,
2013-09-06 21:17:00,51.6,49.4,29.42,North,349,0.0,0.0,92,0.05,RA,,0.95,WeatherDisplay:10.37,2013-09-07 05:17:00,
2013-09-06 21:22:00,51.5,49.3,29.42,North,349,0.0,0.0,92,0.06,RA,,0.96,WeatherDisplay:10.37,2013-09-07 05:22:00,
2013-09-06 21:27:00,51.5,49.3,29.42,NNW,348,0.0,0.0,92,0.08,RA,,0.98,WeatherDisplay:10.37,2013-09-07 05:27:00,
2013-09-06 21:32:00,51.5,49.3,29.41,North,349,0.0,0.0,92,0.09,RA,,0.99,WeatherDisplay:10.37,2013-09-07 05:32:00,
2013-09-06 21:37:00,51.4,49.4,29.41,NNW,348,0.0,0.0,93,0.09,RA,,0.99,WeatherDisplay:10.37,2013-09-07 05:37:00,
2013-09-06 21:42:00,51.4,49.4,29.41,NNW,348,0.0,0.0,93,0.11,RA,,1.01,WeatherDisplay:10.37,2013-09-07 05:42:00,
2013-09-06 21:47:00,51.4,49.4,29.41,North,349,0.0,0.0,93,0.12,RA,,1.02,WeatherDisplay:10.37,2013-09-07 05:47:00,
2013-09-06 21:52:00,51.4,49.4,29.41,North,349,0.0,0.0,93,0.13,RA,,1.03,WeatherDisplay:10.37,2013-09-07 05:52:00,
2013-09-06 21:57:00,51.5,49.5,29.41,North,349,0.0,0.0,93,0.13,RA,,1.03,WeatherDisplay:10.37,2013-09-07 05:57:00,
2013-09-06 22:02:00,51.5,49.8,29.42,NNW,348,0.0,0.0,94,0.14,RA,,1.05,WeatherDisplay:10.37,2013-09-07 06:02:00,
2013-09-06 22:07:00,51.6,49.9,29.41,North,349,0.0,0.0,94,0.15,RA,,1.07,WeatherDisplay:10.37,2013-09-07 06:07:00,
2013-09-06 22:12:00,51.6,49.9,29.41,NNW,348,0.0,0.0,94,0.14,RA,,1.08,WeatherDisplay:10.37,2013-09-07 06:12:00,
2013-09-06 22:17:00,51.7,50.0,29.41,North,349,0.0,0.0,94,0.15,RA,,1.10,WeatherDisplay:10.37,2013-09-07 06:17:00,
2013-09-06 22:22:00,51.7,50.0,29.41,NNW,348,0.0,0.0,94,0.15,RA,,1.11,WeatherDisplay:10.37,2013-09-07 06:22:00,
2013-09-06 22:27:00,51.7,50.0,29.41,NNW,348,0.0,0.0,94,0.13,RA,,1.12,WeatherDisplay:10.37,2013-09-07 06:27:00,
2013-09-06 22:32:00,51.7,50.0,29.41,North,349,0.0,0.0,94,0.14,RA,,1.13,WeatherDisplay:10.37,2013-09-07 06:32:00,
2013-09-06 22:37:00,51.6,49.9,29.41,North,349,0.0,0.0,94,0.15,RA,,1.14,WeatherDisplay:10.37,2013-09-07 06:37:00,
2013-09-06 22:42:00,51.5,49.8,29.42,North,349,0.0,0.0,94,0.14,RA,,1.15,WeatherDisplay:10.37,2013-09-07 06:42:00,
2013-09-06 22:47:00,51.4,49.7,29.41,NNW,348,0.0,0.0,94,0.14,RA,,1.16,WeatherDisplay:10.37,2013-09-07 06:47:00,
2013-09-06 22:52:00,51.3,49.6,29.41,North,349,0.0,0.0,94,0.14,RA,,1.17,WeatherDisplay:10.37,2013-09-07 06:52:00,
2013-09-06 22:57:00,51.1,49.4,29.42,North,349,0.0,0.0,94,0.14,RA,,1.17,WeatherDisplay:10.37,2013-09-07 06:57:00,
2013-09-06 23:02:00,51.1,49.4,29.41,North,349,0.0,0.0,94,0.14,RA,,1.19,WeatherDisplay:10.37,2013-09-07 07:02:00,
2013-09-06 23:07:00,51.0,49.6,29.42,North,349,0.0,0.0,95,0.12,RA,,1.19,WeatherDisplay:10.37,2013-09-07 07:07:00,
2013-09-06 23:12:00,50.9,49.5,29.41,North,349,0.0,0.0,95,0.13,RA,,1.21,WeatherDisplay:10.37,2013-09-07 07:12:00,
2013-09-06 23:17:00,50.9,49.5,29.42,North,349,0.0,0.0,95,0.12,RA,,1.22,WeatherDisplay:10.37,2013-09-07 07:17:00,
2013-09-06 23:22:00,50.8,49.4,29.42,NNW,348,0.0,0.0,95,0.11,RA,,1.22,WeatherDisplay:10.37,2013-09-07 07:22:00,
2013-09-06 23:27:00,50.8,49.4,29.42,NNW,348,0.0,0.0,95,0.12,RA,,1.23,WeatherDisplay:10.37,2013-09-07 07:27:00,
2013-09-06 23:32:00,50.7,49.3,29.42,North,349,0.0,0.0,95,0.11,RA,,1.24,WeatherDisplay:10.37,2013-09-07 07:32:00,
2013-09-06 23:37:00,50.7,49.3,29.42,North,349,0.0,0.0,95,0.11,RA,,1.25,WeatherDisplay:10.37,2013-09-07 07:37:00,
2013-09-06 23:42:00,50.6,49.2,29.42,NNW,348,0.0,0.0,95,0.11,RA,,1.26,WeatherDisplay:10.37,2013-09-07 07:42:00,
2013-09-06 23:47:00,50.6,49.2,29.42,North,349,0.0,0.0,95,0.11,RA,,1.27,WeatherDisplay:10.37,2013-09-07 07:47:00,
2013-09-06 23:52:00,50.5,49.1,29.42,North,349,0.0,0.0,95,0.12,RA,,1.29,WeatherDisplay:10.37,2013-09-07 07:52:00,
2013-09-06 23:57:00,50.5,49.1,29.42,North,349,0.0,0.0,95,0.14,RA,,1.31,WeatherDisplay:10.37,2013-09-07 07:57:00,